sensor_id;sensor_type;location;lat;lon;timestamp;P1;durP1;ratioP1;P2;durP2;ratioP2
70102;SDS011;57470;50.034;15.256;2022-11-11T00:01:42;6.47;;;1.73;;
70102;SDS011;57470;50.034;15.256;2022-11-11T00:04:08;4.90;;;0.80;;
70102;SDS011;57470;50.034;15.256;2022-11-11T00:06:33;4.20;;;1.30;;
70102;SDS011;57470;50.034;15.256;2022-11-11T00:08:59;4.50;;;1.00;;
70102;SDS011;57470;50.034;15.256;2022-11-11T00:11:24;4.37;;;1.33;;
70102;SDS011;57470;50.034;15.256;2022-11-11T00:13:49;3.80;;;0.90;;
70102;SDS011;57470;50.034;15.256;2022-11-11T00:16:16;3.30;;;1.13;;
70102;SDS011;57470;50.034;15.256;2022-11-11T00:18:43;5.60;;;1.20;;
70102;SDS011;57470;50.034;15.256;2022-11-11T00:21:28;4.20;;;0.95;;
70102;SDS011;57470;50.034;15.256;2022-11-11T00:24:20;2.65;;;0.75;;
70102;SDS011;57470;50.034;15.256;2022-11-11T00:27:10;5.32;;;0.85;;
70102;SDS011;57470;50.034;15.256;2022-11-11T00:29:36;2.87;;;0.77;;
70102;SDS011;57470;50.034;15.256;2022-11-11T00:32:03;2.88;;;0.75;;
70102;SDS011;57470;50.034;15.256;2022-11-11T00:34:49;2.75;;;0.75;;
70102;SDS011;57470;50.034;15.256;2022-11-11T00:37:34;3.25;;;1.02;;
70102;SDS011;57470;50.034;15.256;2022-11-11T00:39:59;4.53;;;1.93;;
70102;SDS011;57470;50.034;15.256;2022-11-11T00:42:25;3.85;;;1.73;;
70102;SDS011;57470;50.034;15.256;2022-11-11T00:44:51;2.90;;;0.90;;
70102;SDS011;57470;50.034;15.256;2022-11-11T00:47:16;3.60;;;1.33;;
70102;SDS011;57470;50.034;15.256;2022-11-11T00:50:00;3.50;;;1.13;;
70102;SDS011;57470;50.034;15.256;2022-11-11T00:52:45;3.73;;;1.63;;
70102;SDS011;57470;50.034;15.256;2022-11-11T00:55:11;3.28;;;1.35;;
70102;SDS011;57470;50.034;15.256;2022-11-11T00:57:37;4.70;;;1.85;;
70102;SDS011;57470;50.034;15.256;2022-11-11T01:00:02;5.27;;;1.30;;
70102;SDS011;57470;50.034;15.256;2022-11-11T01:02:28;5.18;;;2.10;;
70102;SDS011;57470;50.034;15.256;2022-11-11T01:04:53;4.40;;;1.60;;
70102;SDS011;57470;50.034;15.256;2022-11-11T01:07:19;3.13;;;0.93;;
70102;SDS011;57470;50.034;15.256;2022-11-11T01:09:44;13.13;;;1.83;;
70102;SDS011;57470;50.034;15.256;2022-11-11T01:12:10;3.60;;;1.20;;
70102;SDS011;57470;50.034;15.256;2022-11-11T01:14:36;4.00;;;1.13;;
70102;SDS011;57470;50.034;15.256;2022-11-11T01:17:01;4.47;;;1.47;;
70102;SDS011;57470;50.034;15.256;2022-11-11T01:19:28;7.97;;;2.75;;
70102;SDS011;57470;50.034;15.256;2022-11-11T01:21:54;3.80;;;0.93;;
70102;SDS011;57470;50.034;15.256;2022-11-11T01:24:19;4.60;;;1.40;;
70102;SDS011;57470;50.034;15.256;2022-11-11T01:26:45;3.70;;;0.93;;
70102;SDS011;57470;50.034;15.256;2022-11-11T01:29:10;4.63;;;1.90;;
70102;SDS011;57470;50.034;15.256;2022-11-11T01:31:36;3.33;;;0.93;;
70102;SDS011;57470;50.034;15.256;2022-11-11T01:34:01;4.40;;;1.43;;
70102;SDS011;57470;50.034;15.256;2022-11-11T01:36:26;6.83;;;1.87;;
70102;SDS011;57470;50.034;15.256;2022-11-11T01:38:53;3.57;;;0.90;;
70102;SDS011;57470;50.034;15.256;2022-11-11T01:41:21;3.08;;;1.13;;
70102;SDS011;57470;50.034;15.256;2022-11-11T01:44:17;4.40;;;0.80;;
70102;SDS011;57470;50.034;15.256;2022-11-11T01:47:03;3.30;;;0.88;;
70102;SDS011;57470;50.034;15.256;2022-11-11T01:52:17;4.72;;;2.08;;
70102;SDS011;57470;50.034;15.256;2022-11-11T01:54:51;3.85;;;1.60;;
70102;SDS011;57470;50.034;15.256;2022-11-11T02:00:20;3.10;;;1.15;;
70102;SDS011;57470;50.034;15.256;2022-11-11T02:02:58;3.53;;;1.33;;
70102;SDS011;57470;50.034;15.256;2022-11-11T02:05:31;3.50;;;1.38;;
70102;SDS011;57470;50.034;15.256;2022-11-11T02:08:07;3.90;;;1.05;;
70102;SDS011;57470;50.034;15.256;2022-11-11T02:10:36;3.73;;;1.20;;
70102;SDS011;57470;50.034;15.256;2022-11-11T02:13:05;3.53;;;0.98;;
70102;SDS011;57470;50.034;15.256;2022-11-11T02:15:55;4.50;;;1.42;;
70102;SDS011;57470;50.034;15.256;2022-11-11T02:18:20;6.63;;;1.67;;
70102;SDS011;57470;50.034;15.256;2022-11-11T02:20:46;3.72;;;1.15;;
70102;SDS011;57470;50.034;15.256;2022-11-11T02:23:14;3.53;;;1.00;;
70102;SDS011;57470;50.034;15.256;2022-11-11T02:25:46;3.47;;;1.40;;
70102;SDS011;57470;50.034;15.256;2022-11-11T02:28:14;4.60;;;1.25;;
70102;SDS011;57470;50.034;15.256;2022-11-11T02:30:41;3.92;;;1.20;;
70102;SDS011;57470;50.034;15.256;2022-11-11T02:33:06;4.07;;;0.77;;
70102;SDS011;57470;50.034;15.256;2022-11-11T02:35:36;3.87;;;1.27;;
70102;SDS011;57470;50.034;15.256;2022-11-11T02:38:05;4.18;;;1.27;;
70102;SDS011;57470;50.034;15.256;2022-11-11T02:40:42;3.47;;;1.27;;
70102;SDS011;57470;50.034;15.256;2022-11-11T02:43:28;3.28;;;1.20;;
70102;SDS011;57470;50.034;15.256;2022-11-11T02:45:55;3.00;;;1.03;;
70102;SDS011;57470;50.034;15.256;2022-11-11T02:48:22;9.52;;;1.15;;
70102;SDS011;57470;50.034;15.256;2022-11-11T02:50:50;4.32;;;1.10;;
70102;SDS011;57470;50.034;15.256;2022-11-11T02:53:16;4.38;;;1.55;;
70102;SDS011;57470;50.034;15.256;2022-11-11T02:55:43;4.32;;;1.38;;
70102;SDS011;57470;50.034;15.256;2022-11-11T02:58:09;5.37;;;1.73;;
70102;SDS011;57470;50.034;15.256;2022-11-11T03:00:36;4.80;;;1.27;;
70102;SDS011;57470;50.034;15.256;2022-11-11T03:03:03;3.88;;;1.50;;
70102;SDS011;57470;50.034;15.256;2022-11-11T03:05:29;3.42;;;0.98;;
70102;SDS011;57470;50.034;15.256;2022-11-11T03:07:56;6.13;;;1.73;;
70102;SDS011;57470;50.034;15.256;2022-11-11T03:10:22;5.40;;;1.42;;
70102;SDS011;57470;50.034;15.256;2022-11-11T03:12:47;5.37;;;1.60;;
70102;SDS011;57470;50.034;15.256;2022-11-11T03:15:13;3.38;;;1.30;;
70102;SDS011;57470;50.034;15.256;2022-11-11T03:17:38;2.57;;;0.70;;
70102;SDS011;57470;50.034;15.256;2022-11-11T03:20:07;3.57;;;1.27;;
70102;SDS011;57470;50.034;15.256;2022-11-11T03:23:00;3.15;;;0.77;;
70102;SDS011;57470;50.034;15.256;2022-11-11T03:25:27;4.90;;;1.40;;
70102;SDS011;57470;50.034;15.256;2022-11-11T03:28:08;4.70;;;1.97;;
70102;SDS011;57470;50.034;15.256;2022-11-11T03:30:38;5.95;;;1.35;;
70102;SDS011;57470;50.034;15.256;2022-11-11T03:33:05;3.90;;;1.60;;
70102;SDS011;57470;50.034;15.256;2022-11-11T03:35:31;5.03;;;1.75;;
70102;SDS011;57470;50.034;15.256;2022-11-11T03:37:56;3.67;;;1.07;;
70102;SDS011;57470;50.034;15.256;2022-11-11T03:40:47;2.70;;;0.90;;
70102;SDS011;57470;50.034;15.256;2022-11-11T03:43:14;3.97;;;1.10;;
70102;SDS011;57470;50.034;15.256;2022-11-11T03:45:42;3.47;;;1.23;;
70102;SDS011;57470;50.034;15.256;2022-11-11T03:48:08;3.92;;;1.15;;
70102;SDS011;57470;50.034;15.256;2022-11-11T03:50:34;2.78;;;0.85;;
70102;SDS011;57470;50.034;15.256;2022-11-11T03:52:59;4.60;;;2.00;;
70102;SDS011;57470;50.034;15.256;2022-11-11T03:55:25;2.33;;;0.63;;
70102;SDS011;57470;50.034;15.256;2022-11-11T03:57:51;3.60;;;1.00;;
70102;SDS011;57470;50.034;15.256;2022-11-11T04:00:20;3.27;;;1.30;;
70102;SDS011;57470;50.034;15.256;2022-11-11T04:02:48;3.58;;;1.08;;
70102;SDS011;57470;50.034;15.256;2022-11-11T04:05:32;5.00;;;1.65;;
70102;SDS011;57470;50.034;15.256;2022-11-11T04:08:16;2.88;;;0.90;;
70102;SDS011;57470;50.034;15.256;2022-11-11T04:11:03;6.07;;;1.27;;
70102;SDS011;57470;50.034;15.256;2022-11-11T04:13:36;3.60;;;1.57;;
70102;SDS011;57470;50.034;15.256;2022-11-11T04:16:21;4.63;;;1.25;;
70102;SDS011;57470;50.034;15.256;2022-11-11T04:18:46;3.33;;;1.13;;
70102;SDS011;57470;50.034;15.256;2022-11-11T04:21:30;4.43;;;1.10;;
70102;SDS011;57470;50.034;15.256;2022-11-11T04:24:18;3.63;;;1.10;;
70102;SDS011;57470;50.034;15.256;2022-11-11T04:27:05;3.63;;;1.20;;
70102;SDS011;57470;50.034;15.256;2022-11-11T04:29:34;3.20;;;0.95;;
70102;SDS011;57470;50.034;15.256;2022-11-11T04:34:46;6.78;;;0.82;;
70102;SDS011;57470;50.034;15.256;2022-11-11T04:37:19;5.57;;;2.20;;
70102;SDS011;57470;50.034;15.256;2022-11-11T04:39:46;3.37;;;0.90;;
70102;SDS011;57470;50.034;15.256;2022-11-11T04:42:31;5.15;;;1.02;;
70102;SDS011;57470;50.034;15.256;2022-11-11T04:44:58;4.35;;;1.35;;
70102;SDS011;57470;50.034;15.256;2022-11-11T04:47:52;2.67;;;0.95;;
70102;SDS011;57470;50.034;15.256;2022-11-11T04:50:17;3.20;;;1.10;;
70102;SDS011;57470;50.034;15.256;2022-11-11T04:52:42;2.77;;;0.53;;
70102;SDS011;57470;50.034;15.256;2022-11-11T04:55:08;5.20;;;1.37;;
70102;SDS011;57470;50.034;15.256;2022-11-11T04:57:52;2.22;;;0.45;;
70102;SDS011;57470;50.034;15.256;2022-11-11T05:00:17;4.90;;;1.40;;
70102;SDS011;57470;50.034;15.256;2022-11-11T05:02:43;6.93;;;1.30;;
70102;SDS011;57470;50.034;15.256;2022-11-11T05:05:27;2.95;;;0.98;;
70102;SDS011;57470;50.034;15.256;2022-11-11T05:08:14;3.22;;;1.20;;
70102;SDS011;57470;50.034;15.256;2022-11-11T05:10:58;4.93;;;1.58;;
70102;SDS011;57470;50.034;15.256;2022-11-11T05:13:24;3.73;;;1.13;;
70102;SDS011;57470;50.034;15.256;2022-11-11T05:16:12;3.95;;;1.25;;
70102;SDS011;57470;50.034;15.256;2022-11-11T05:18:59;3.85;;;1.23;;
70102;SDS011;57470;50.034;15.256;2022-11-11T05:21:43;3.00;;;0.87;;
70102;SDS011;57470;50.034;15.256;2022-11-11T05:24:09;2.35;;;0.75;;
70102;SDS011;57470;50.034;15.256;2022-11-11T05:26:53;4.50;;;1.10;;
70102;SDS011;57470;50.034;15.256;2022-11-11T05:29:18;2.37;;;0.60;;
70102;SDS011;57470;50.034;15.256;2022-11-11T05:31:43;2.83;;;0.70;;
70102;SDS011;57470;50.034;15.256;2022-11-11T05:34:09;3.70;;;1.37;;
70102;SDS011;57470;50.034;15.256;2022-11-11T05:36:34;3.03;;;0.87;;
70102;SDS011;57470;50.034;15.256;2022-11-11T05:38:59;5.40;;;1.33;;
70102;SDS011;57470;50.034;15.256;2022-11-11T05:41:25;6.07;;;1.70;;
70102;SDS011;57470;50.034;15.256;2022-11-11T05:43:50;4.10;;;1.33;;
70102;SDS011;57470;50.034;15.256;2022-11-11T05:46:15;7.10;;;1.53;;
70102;SDS011;57470;50.034;15.256;2022-11-11T05:48:41;5.00;;;1.45;;
70102;SDS011;57470;50.034;15.256;2022-11-11T05:51:26;4.33;;;1.50;;
70102;SDS011;57470;50.034;15.256;2022-11-11T05:53:54;4.50;;;1.92;;
70102;SDS011;57470;50.034;15.256;2022-11-11T05:56:21;4.82;;;1.50;;
70102;SDS011;57470;50.034;15.256;2022-11-11T05:58:46;3.23;;;0.93;;
70102;SDS011;57470;50.034;15.256;2022-11-11T06:01:12;7.20;;;1.50;;
70102;SDS011;57470;50.034;15.256;2022-11-11T06:03:37;5.70;;;1.40;;
70102;SDS011;57470;50.034;15.256;2022-11-11T06:06:02;3.13;;;0.97;;
70102;SDS011;57470;50.034;15.256;2022-11-11T06:08:28;6.17;;;1.90;;
70102;SDS011;57470;50.034;15.256;2022-11-11T06:10:53;4.20;;;1.60;;
70102;SDS011;57470;50.034;15.256;2022-11-11T06:13:18;6.70;;;1.63;;
70102;SDS011;57470;50.034;15.256;2022-11-11T06:15:44;4.73;;;2.07;;
70102;SDS011;57470;50.034;15.256;2022-11-11T06:18:09;5.73;;;1.47;;
70102;SDS011;57470;50.034;15.256;2022-11-11T06:20:34;6.00;;;1.83;;
70102;SDS011;57470;50.034;15.256;2022-11-11T06:23:00;5.15;;;1.83;;
70102;SDS011;57470;50.034;15.256;2022-11-11T06:25:27;6.13;;;1.83;;
70102;SDS011;57470;50.034;15.256;2022-11-11T06:28:12;5.18;;;2.08;;
70102;SDS011;57470;50.034;15.256;2022-11-11T06:30:38;4.15;;;1.73;;
70102;SDS011;57470;50.034;15.256;2022-11-11T06:33:04;2.73;;;0.87;;
70102;SDS011;57470;50.034;15.256;2022-11-11T06:35:32;3.53;;;1.00;;
70102;SDS011;57470;50.034;15.256;2022-11-11T06:37:59;7.97;;;1.73;;
70102;SDS011;57470;50.034;15.256;2022-11-11T06:40:25;4.75;;;1.85;;
70102;SDS011;57470;50.034;15.256;2022-11-11T06:42:50;4.87;;;1.50;;
70102;SDS011;57470;50.034;15.256;2022-11-11T06:45:15;3.20;;;1.30;;
70102;SDS011;57470;50.034;15.256;2022-11-11T06:47:41;6.13;;;1.95;;
70102;SDS011;57470;50.034;15.256;2022-11-11T06:50:07;2.70;;;0.77;;
70102;SDS011;57470;50.034;15.256;2022-11-11T06:52:33;4.50;;;1.25;;
70102;SDS011;57470;50.034;15.256;2022-11-11T06:54:58;4.03;;;1.40;;
70102;SDS011;57470;50.034;15.256;2022-11-11T06:57:23;5.17;;;2.10;;
70102;SDS011;57470;50.034;15.256;2022-11-11T06:59:49;4.43;;;1.43;;
70102;SDS011;57470;50.034;15.256;2022-11-11T07:02:14;3.03;;;1.13;;
70102;SDS011;57470;50.034;15.256;2022-11-11T07:04:39;3.20;;;0.83;;
70102;SDS011;57470;50.034;15.256;2022-11-11T07:07:05;4.93;;;1.53;;
70102;SDS011;57470;50.034;15.256;2022-11-11T07:09:30;5.53;;;1.50;;
70102;SDS011;57470;50.034;15.256;2022-11-11T07:11:56;6.07;;;2.60;;
70102;SDS011;57470;50.034;15.256;2022-11-11T07:14:21;3.23;;;1.13;;
70102;SDS011;57470;50.034;15.256;2022-11-11T07:16:46;4.60;;;1.67;;
70102;SDS011;57470;50.034;15.256;2022-11-11T07:19:12;4.28;;;1.92;;
70102;SDS011;57470;50.034;15.256;2022-11-11T07:21:37;3.40;;;1.20;;
70102;SDS011;57470;50.034;15.256;2022-11-11T07:24:03;7.10;;;2.47;;
70102;SDS011;57470;50.034;15.256;2022-11-11T07:26:28;5.93;;;1.97;;
70102;SDS011;57470;50.034;15.256;2022-11-11T07:28:54;7.47;;;2.27;;
70102;SDS011;57470;50.034;15.256;2022-11-11T07:31:19;5.53;;;1.80;;
70102;SDS011;57470;50.034;15.256;2022-11-11T07:33:45;7.27;;;2.73;;
70102;SDS011;57470;50.034;15.256;2022-11-11T07:36:11;6.10;;;2.53;;
70102;SDS011;57470;50.034;15.256;2022-11-11T07:38:36;5.73;;;1.63;;
70102;SDS011;57470;50.034;15.256;2022-11-11T07:41:01;8.80;;;2.53;;
70102;SDS011;57470;50.034;15.256;2022-11-11T07:43:27;4.97;;;2.23;;
70102;SDS011;57470;50.034;15.256;2022-11-11T07:45:52;3.05;;;0.57;;
70102;SDS011;57470;50.034;15.256;2022-11-11T07:48:18;5.20;;;1.50;;
70102;SDS011;57470;50.034;15.256;2022-11-11T07:50:43;4.73;;;1.73;;
70102;SDS011;57470;50.034;15.256;2022-11-11T07:53:08;4.43;;;1.60;;
70102;SDS011;57470;50.034;15.256;2022-11-11T07:55:34;4.73;;;1.17;;
70102;SDS011;57470;50.034;15.256;2022-11-11T07:57:59;3.40;;;1.10;;
70102;SDS011;57470;50.034;15.256;2022-11-11T08:00:26;6.40;;;1.70;;
70102;SDS011;57470;50.034;15.256;2022-11-11T08:02:51;5.07;;;1.50;;
70102;SDS011;57470;50.034;15.256;2022-11-11T08:05:17;7.53;;;2.57;;
70102;SDS011;57470;50.034;15.256;2022-11-11T08:07:42;6.17;;;1.80;;
70102;SDS011;57470;50.034;15.256;2022-11-11T08:10:08;5.90;;;1.90;;
70102;SDS011;57470;50.034;15.256;2022-11-11T08:12:35;3.83;;;1.20;;
70102;SDS011;57470;50.034;15.256;2022-11-11T08:15:19;5.18;;;1.77;;
70102;SDS011;57470;50.034;15.256;2022-11-11T08:17:44;6.63;;;1.93;;
70102;SDS011;57470;50.034;15.256;2022-11-11T08:20:10;5.13;;;2.47;;
70102;SDS011;57470;50.034;15.256;2022-11-11T08:22:37;7.10;;;2.07;;
70102;SDS011;57470;50.034;15.256;2022-11-11T08:25:06;5.05;;;2.40;;
70102;SDS011;57470;50.034;15.256;2022-11-11T08:27:34;5.30;;;1.77;;
70102;SDS011;57470;50.034;15.256;2022-11-11T08:30:01;4.88;;;1.92;;
70102;SDS011;57470;50.034;15.256;2022-11-11T08:32:27;6.25;;;2.22;;
70102;SDS011;57470;50.034;15.256;2022-11-11T08:34:52;4.93;;;2.13;;
70102;SDS011;57470;50.034;15.256;2022-11-11T08:37:18;5.40;;;2.10;;
70102;SDS011;57470;50.034;15.256;2022-11-11T08:39:43;4.67;;;1.30;;
70102;SDS011;57470;50.034;15.256;2022-11-11T08:42:08;4.57;;;1.40;;
70102;SDS011;57470;50.034;15.256;2022-11-11T08:44:34;5.67;;;1.77;;
70102;SDS011;57470;50.034;15.256;2022-11-11T08:46:59;8.20;;;2.63;;
70102;SDS011;57470;50.034;15.256;2022-11-11T08:49:25;4.57;;;1.73;;
70102;SDS011;57470;50.034;15.256;2022-11-11T08:51:50;4.97;;;1.53;;
70102;SDS011;57470;50.034;15.256;2022-11-11T08:54:16;4.30;;;1.37;;
70102;SDS011;57470;50.034;15.256;2022-11-11T08:56:41;4.47;;;1.20;;
70102;SDS011;57470;50.034;15.256;2022-11-11T08:59:07;6.55;;;2.15;;
70102;SDS011;57470;50.034;15.256;2022-11-11T09:01:34;5.53;;;1.85;;
70102;SDS011;57470;50.034;15.256;2022-11-11T09:04:00;9.02;;;2.60;;
70102;SDS011;57470;50.034;15.256;2022-11-11T09:06:26;6.60;;;2.10;;
70102;SDS011;57470;50.034;15.256;2022-11-11T09:08:52;6.53;;;2.15;;
70102;SDS011;57470;50.034;15.256;2022-11-11T09:11:17;6.17;;;2.40;;
70102;SDS011;57470;50.034;15.256;2022-11-11T09:13:43;5.75;;;1.92;;
70102;SDS011;57470;50.034;15.256;2022-11-11T09:16:10;5.63;;;2.10;;
70102;SDS011;57470;50.034;15.256;2022-11-11T09:18:36;6.20;;;2.03;;
70102;SDS011;57470;50.034;15.256;2022-11-11T09:21:01;13.20;;;1.92;;
70102;SDS011;57470;50.034;15.256;2022-11-11T09:23:27;6.57;;;2.27;;
70102;SDS011;57470;50.034;15.256;2022-11-11T09:25:53;10.25;;;2.45;;
70102;SDS011;57470;50.034;15.256;2022-11-11T09:28:18;3.80;;;1.50;;
70102;SDS011;57470;50.034;15.256;2022-11-11T09:30:44;6.60;;;3.17;;
70102;SDS011;57470;50.034;15.256;2022-11-11T09:33:09;6.23;;;2.07;;
70102;SDS011;57470;50.034;15.256;2022-11-11T09:35:36;6.32;;;2.97;;
70102;SDS011;57470;50.034;15.256;2022-11-11T09:38:02;11.60;;;2.85;;
70102;SDS011;57470;50.034;15.256;2022-11-11T09:41:03;4.80;;;1.10;;
70102;SDS011;57470;50.034;15.256;2022-11-11T09:43:42;4.03;;;1.65;;
70102;SDS011;57470;50.034;15.256;2022-11-11T09:54:14;5.35;;;2.17;;
70102;SDS011;57470;50.034;15.256;2022-11-11T09:56:43;5.97;;;2.80;;
70102;SDS011;57470;50.034;15.256;2022-11-11T09:59:23;9.55;;;2.38;;
70102;SDS011;57470;50.034;15.256;2022-11-11T10:01:54;5.68;;;1.80;;
70102;SDS011;57470;50.034;15.256;2022-11-11T10:04:37;9.93;;;3.10;;
70102;SDS011;57470;50.034;15.256;2022-11-11T10:10:10;11.85;;;5.68;;
70102;SDS011;57470;50.034;15.256;2022-11-11T10:12:43;13.60;;;4.82;;
70102;SDS011;57470;50.034;15.256;2022-11-11T10:15:14;40.88;;;17.00;;
70102;SDS011;57470;50.034;15.256;2022-11-11T10:18:16;68.50;;;38.30;;
70102;SDS011;57470;50.034;15.256;2022-11-11T10:20:33;17.55;;;8.85;;
70102;SDS011;57470;50.034;15.256;2022-11-11T10:23:15;19.60;;;9.43;;
70102;SDS011;57470;50.034;15.256;2022-11-11T10:25:49;21.00;;;11.93;;
70102;SDS011;57470;50.034;15.256;2022-11-11T10:28:22;9.60;;;5.15;;
70102;SDS011;57470;50.034;15.256;2022-11-11T10:30:52;14.03;;;4.83;;
70102;SDS011;57470;50.034;15.256;2022-11-11T10:36:29;13.75;;;3.63;;
70102;SDS011;57470;50.034;15.256;2022-11-11T10:38:59;17.17;;;6.05;;
70102;SDS011;57470;50.034;15.256;2022-11-11T10:44:14;10.15;;;3.83;;
70102;SDS011;57470;50.034;15.256;2022-11-11T10:46:47;11.02;;;2.85;;
70102;SDS011;57470;50.034;15.256;2022-11-11T10:52:47;7.47;;;3.17;;
70102;SDS011;57470;50.034;15.256;2022-11-11T10:55:45;7.33;;;2.80;;
70102;SDS011;57470;50.034;15.256;2022-11-11T11:01:06;5.10;;;2.47;;
70102;SDS011;57470;50.034;15.256;2022-11-11T11:03:35;7.50;;;2.50;;
70102;SDS011;57470;50.034;15.256;2022-11-11T11:08:41;13.00;;;3.70;;
70102;SDS011;57470;50.034;15.256;2022-11-11T11:11:16;9.45;;;4.03;;
70102;SDS011;57470;50.034;15.256;2022-11-11T11:13:59;9.90;;;3.45;;
70102;SDS011;57470;50.034;15.256;2022-11-11T11:16:30;8.05;;;2.50;;
70102;SDS011;57470;50.034;15.256;2022-11-11T11:19:15;5.47;;;2.17;;
70102;SDS011;57470;50.034;15.256;2022-11-11T11:24:36;4.75;;;1.85;;
70102;SDS011;57470;50.034;15.256;2022-11-11T11:27:03;8.65;;;3.08;;
70102;SDS011;57470;50.034;15.256;2022-11-11T11:29:35;8.45;;;2.78;;
70102;SDS011;57470;50.034;15.256;2022-11-11T11:32:13;15.07;;;3.80;;
70102;SDS011;57470;50.034;15.256;2022-11-11T11:37:16;14.50;;;4.88;;
70102;SDS011;57470;50.034;15.256;2022-11-11T11:39:43;11.13;;;3.70;;
70102;SDS011;57470;50.034;15.256;2022-11-11T11:42:25;8.23;;;3.88;;
70102;SDS011;57470;50.034;15.256;2022-11-11T11:45:15;7.53;;;3.40;;
70102;SDS011;57470;50.034;15.256;2022-11-11T11:53:11;7.60;;;2.90;;
70102;SDS011;57470;50.034;15.256;2022-11-11T11:55:59;5.90;;;1.77;;
70102;SDS011;57470;50.034;15.256;2022-11-11T11:58:56;5.13;;;1.77;;
70102;SDS011;57470;50.034;15.256;2022-11-11T12:15:28;7.30;;;3.17;;
70102;SDS011;57470;50.034;15.256;2022-11-11T12:18:05;6.90;;;2.75;;
70102;SDS011;57470;50.034;15.256;2022-11-11T12:20:35;6.63;;;2.63;;
70102;SDS011;57470;50.034;15.256;2022-11-11T12:37:04;11.05;;;4.13;;
70102;SDS011;57470;50.034;15.256;2022-11-11T12:42:39;7.20;;;2.78;;
70102;SDS011;57470;50.034;15.256;2022-11-11T12:45:35;9.23;;;2.55;;
70102;SDS011;57470;50.034;15.256;2022-11-11T12:50:40;9.93;;;4.20;;
70102;SDS011;57470;50.034;15.256;2022-11-11T12:53:25;7.90;;;2.83;;
70102;SDS011;57470;50.034;15.256;2022-11-11T12:58:54;6.72;;;2.15;;
70102;SDS011;57470;50.034;15.256;2022-11-11T13:07:24;7.43;;;2.95;;
70102;SDS011;57470;50.034;15.256;2022-11-11T13:16:02;6.28;;;2.85;;
70102;SDS011;57470;50.034;15.256;2022-11-11T13:18:41;6.63;;;2.40;;
70102;SDS011;57470;50.034;15.256;2022-11-11T13:21:52;6.60;;;2.53;;
70102;SDS011;57470;50.034;15.256;2022-11-11T13:24:13;7.47;;;2.90;;
70102;SDS011;57470;50.034;15.256;2022-11-11T13:26:43;6.13;;;2.50;;
70102;SDS011;57470;50.034;15.256;2022-11-11T13:29:18;8.73;;;2.88;;
70102;SDS011;57470;50.034;15.256;2022-11-11T13:32:00;9.50;;;3.00;;
70102;SDS011;57470;50.034;15.256;2022-11-11T13:34:28;8.18;;;2.55;;
70102;SDS011;57470;50.034;15.256;2022-11-11T13:36:58;11.65;;;2.70;;
70102;SDS011;57470;50.034;15.256;2022-11-11T13:39:37;13.95;;;3.65;;
70102;SDS011;57470;50.034;15.256;2022-11-11T13:42:08;40.83;;;12.13;;
70102;SDS011;57470;50.034;15.256;2022-11-11T13:44:50;45.10;;;13.63;;
70102;SDS011;57470;50.034;15.256;2022-11-11T13:47:21;32.17;;;13.18;;
70102;SDS011;57470;50.034;15.256;2022-11-11T13:50:26;9.30;;;3.97;;
70102;SDS011;57470;50.034;15.256;2022-11-11T13:52:59;6.88;;;2.85;;
70102;SDS011;57470;50.034;15.256;2022-11-11T13:55:42;8.15;;;2.97;;
70102;SDS011;57470;50.034;15.256;2022-11-11T13:58:19;7.50;;;2.13;;
70102;SDS011;57470;50.034;15.256;2022-11-11T14:00:54;13.18;;;2.97;;
70102;SDS011;57470;50.034;15.256;2022-11-11T14:06:07;5.90;;;3.00;;
70102;SDS011;57470;50.034;15.256;2022-11-11T14:13:56;7.43;;;2.60;;
70102;SDS011;57470;50.034;15.256;2022-11-11T14:21:53;7.60;;;2.50;;
70102;SDS011;57470;50.034;15.256;2022-11-11T14:24:21;6.07;;;2.15;;
70102;SDS011;57470;50.034;15.256;2022-11-11T14:26:59;9.83;;;2.23;;
70102;SDS011;57470;50.034;15.256;2022-11-11T14:29:29;4.97;;;1.75;;
70102;SDS011;57470;50.034;15.256;2022-11-11T14:34:37;10.70;;;3.57;;
70102;SDS011;57470;50.034;15.256;2022-11-11T14:40:00;11.63;;;3.55;;
70102;SDS011;57470;50.034;15.256;2022-11-11T14:45:00;6.55;;;2.35;;
70102;SDS011;57470;50.034;15.256;2022-11-11T14:49:59;7.15;;;2.85;;
70102;SDS011;57470;50.034;15.256;2022-11-11T14:55:41;9.35;;;3.75;;
70102;SDS011;57470;50.034;15.256;2022-11-11T14:57:48;7.40;;;2.28;;
70102;SDS011;57470;50.034;15.256;2022-11-11T15:00:30;7.60;;;3.28;;
70102;SDS011;57470;50.034;15.256;2022-11-11T15:03:08;8.93;;;2.97;;
70102;SDS011;57470;50.034;15.256;2022-11-11T15:11:27;5.63;;;2.03;;
70102;SDS011;57470;50.034;15.256;2022-11-11T15:17:04;5.68;;;2.03;;
70102;SDS011;57470;50.034;15.256;2022-11-11T15:23:01;5.07;;;2.30;;
70102;SDS011;57470;50.034;15.256;2022-11-11T15:26:05;9.02;;;2.47;;
70102;SDS011;57470;50.034;15.256;2022-11-11T15:36:39;6.03;;;2.50;;
70102;SDS011;57470;50.034;15.256;2022-11-11T15:39:10;6.72;;;3.38;;
70102;SDS011;57470;50.034;15.256;2022-11-11T15:41:40;8.23;;;2.55;;
70102;SDS011;57470;50.034;15.256;2022-11-11T15:44:08;7.80;;;3.05;;
70102;SDS011;57470;50.034;15.256;2022-11-11T15:46:47;4.43;;;1.77;;
70102;SDS011;57470;50.034;15.256;2022-11-11T15:49:59;6.03;;;2.78;;
70102;SDS011;57470;50.034;15.256;2022-11-11T15:54:50;12.68;;;3.08;;
70102;SDS011;57470;50.034;15.256;2022-11-11T15:59:58;7.43;;;3.20;;
70102;SDS011;57470;50.034;15.256;2022-11-11T16:02:26;9.45;;;3.47;;
70102;SDS011;57470;50.034;15.256;2022-11-11T16:07:24;8.75;;;3.95;;
70102;SDS011;57470;50.034;15.256;2022-11-11T16:10:04;9.27;;;3.00;;
70102;SDS011;57470;50.034;15.256;2022-11-11T16:12:39;7.93;;;3.63;;
70102;SDS011;57470;50.034;15.256;2022-11-11T16:15:17;13.80;;;3.55;;
70102;SDS011;57470;50.034;15.256;2022-11-11T16:17:48;8.52;;;3.47;;
70102;SDS011;57470;50.034;15.256;2022-11-11T16:20:18;11.90;;;3.83;;
70102;SDS011;57470;50.034;15.256;2022-11-11T16:22:49;11.15;;;4.45;;
70102;SDS011;57470;50.034;15.256;2022-11-11T16:25:20;7.40;;;3.50;;
70102;SDS011;57470;50.034;15.256;2022-11-11T16:27:47;8.00;;;4.20;;
70102;SDS011;57470;50.034;15.256;2022-11-11T16:36:09;11.43;;;4.45;;
70102;SDS011;57470;50.034;15.256;2022-11-11T16:38:35;23.52;;;7.03;;
70102;SDS011;57470;50.034;15.256;2022-11-11T16:41:03;17.70;;;6.75;;
70102;SDS011;57470;50.034;15.256;2022-11-11T16:43:30;20.23;;;5.73;;
70102;SDS011;57470;50.034;15.256;2022-11-11T16:46:01;20.58;;;8.32;;
70102;SDS011;57470;50.034;15.256;2022-11-11T16:51:03;23.38;;;7.18;;
70102;SDS011;57470;50.034;15.256;2022-11-11T16:53:35;19.90;;;7.28;;
70102;SDS011;57470;50.034;15.256;2022-11-11T16:56:04;21.27;;;6.43;;
70102;SDS011;57470;50.034;15.256;2022-11-11T16:58:33;13.02;;;4.43;;
70102;SDS011;57470;50.034;15.256;2022-11-11T17:01:04;12.00;;;5.72;;
70102;SDS011;57470;50.034;15.256;2022-11-11T17:03:30;15.45;;;5.90;;
70102;SDS011;57470;50.034;15.256;2022-11-11T17:05:57;13.50;;;4.93;;
70102;SDS011;57470;50.034;15.256;2022-11-11T17:08:29;12.27;;;4.00;;
70102;SDS011;57470;50.034;15.256;2022-11-11T17:10:58;10.73;;;3.53;;
70102;SDS011;57470;50.034;15.256;2022-11-11T17:13:27;10.93;;;4.00;;
70102;SDS011;57470;50.034;15.256;2022-11-11T17:15:53;9.23;;;4.07;;
70102;SDS011;57470;50.034;15.256;2022-11-11T17:18:20;12.75;;;4.43;;
70102;SDS011;57470;50.034;15.256;2022-11-11T17:20:46;12.77;;;5.67;;
70102;SDS011;57470;50.034;15.256;2022-11-11T17:23:12;9.48;;;4.28;;
70102;SDS011;57470;50.034;15.256;2022-11-11T17:25:38;15.23;;;5.00;;
70102;SDS011;57470;50.034;15.256;2022-11-11T17:28:03;19.17;;;5.67;;
70102;SDS011;57470;50.034;15.256;2022-11-11T17:30:29;18.93;;;7.07;;
70102;SDS011;57470;50.034;15.256;2022-11-11T17:32:54;14.70;;;6.40;;